Clearfield, PA

8:01 AM EDT on September 22, 2014 (GMT -0400)
University Park | Change Station
CLOSE
Current Station
Airport
Location: State College,
Elevation: 1240 ft
Nearby Weather Stations

Elev 1240 ft 40.85 °N, 77.84 °W | Updated 1 hour ago

Overcast
Overcast
52 °F
Feels Like 52 °F
N
16
Wind Variable Wind from NNW
Gusts 20 mph

Today
High -- | Low -- °F
--% Chance of Precip.
Yesterday
High -- | Low -- °F
Precip. -- in
7:01 AM 7:10 PM
Waning Crescent, 3% visible
Pressure 29.93 in
Visibility 10.0 miles
Clouds Mostly Cloudy 3800 ft
Dew Point 43 °F
Humidity 71%
Rainfall 0.00 in
Snow Depth Not available.
UV 0 out of 12
Pollen 3.70 out of 12
Air Quality Not available.
Flu Activity Not available.
METAR KUNV 221053Z 33014G17KT 10SM BKN038 11/06 A2993

More Conditions Fewer Conditions

Pressure 29.93 in
Visibility 10.0 miles
Clouds Mostly Cloudy 3800 ft
Dew Point 43 °F
Humidity 71%
Rainfall 0.00 in
Snow Depth Not available.
UV 0 out of 12
Pollen 3.70 out of 12
Air Quality Not available.
Flu Activity Not available.
METAR KUNV 221053Z 33014G17KT 10SM BKN038 11/06 A2993

More Conditions Fewer Conditions

10-Day Weather Forecast

Almanac

Astronomy

Sep. 22, 2014 Rise Set
Actual Time 7:01 AM EDT 7:10 PM EDT
Civil Twilight 6:33 AM EDT 7:38 PM EDT
Nautical Twilight 6:01 AM EDT 8:10 PM EDT
Astronomical Twilight 5:28 AM EDT 8:43 PM EDT
Moon 5:27 AM EDT 6:17 PM EDT
Length of Visible Light 13h 04m
Length of Day
12h 09m
Tomorrow will be 2m 42s shorter.
Waning Crescent, 3% of the Moon is Illuminated
Today
Waning Crescent
Sep 24
New
Oct 1
First Quarter
Oct 8
Full
Oct 15
Last Quarter

Today's Extremes

State Highs State Lows

Community

WunderPhotos

Upload Photos

1,755,411 photos uploaded!

WunderBlogs® & News

Nearby

Snow Depth

Station Depth Elevation
No new snow has been reported.

Earthquake Activity

City Distance Mag. Time & Date
No recent earthquake activity has been reported nearby.
Minimum magnitude displayed is 2.5.

Coastal Water Temperatures

Place Temperature
No Stations Reporting

Nearby Weather Stations